Flight Track Log - Related Links

Times and Time Zones

All times are in EDT time to prevent confusion due to time zone crossing. See the AAL9703 flight status page for this flight to view local times or setup timezone preferences in your user account.

Time Position Orientation Groundspeed Altitude Reporting Facility
EDT Latitude Longitude Course Direction KTS MPH feet Rate Location/Type
Tue 05:36:51 PM 47.8958 -122.2856 183° South 162 186 1,500  Level Seattle Center
Tue 05:37:46 PM 47.8478 -122.2892 113° Southeast 202 232 3,600 1,900 Climbing Seattle Center
Tue 05:37:51 PM 47.8531 -122.2906 113° Southeast 183 211 3,400 3,364 Descending Seattle Center
Tue 05:38:52 PM 47.7867 -122.2406 113° Southeast 243 280 7,300 3,738 Climbing Seattle Center
Tue 05:39:53 PM 47.7381 -122.1461 112° Southeast 274 315 11,000 3,049 Climbing Seattle Center
Tue 05:40:54 PM 47.7008 -122.0169 112° Southeast 351 404 13,500 3,402 Climbing Seattle Center
Tue 05:42:37 PM 47.6280 -121.7640 113° Southeast 413 475 20,300 3,294 Climbing FlightAware ADS-B
Tue 05:43:27 PM 47.5910 -121.6330 113° Southeast 424 488 21,900 1,067 Climbing FlightAware ADS-B
Tue 05:44:07 PM 47.5660 -121.5420 112° Southeast 424 488 21,900  Level FlightAware ADS-B
Tue 05:44:57 PM 47.5350 -121.4270 112° Southeast 424 488 21,900  Level FlightAware ADS-B
Tue 05:45:37 PM 47.5100 -121.3350 112° Southeast 424 488 21,900  Level FlightAware ADS-B
Tue 05:46:17 PM 47.4850 -121.2440 112° Southeast 424 488 21,900  Level FlightAware ADS-B
Tue 05:46:57 PM 47.4600 -121.1520 112° Southeast 424 488 21,900 2,971 Level FlightAware ADS-B
Tue 05:48:00 PM 47.3589 -120.8531 112° Southeast 474 545 27,000 2,468 Climbing Seattle Center
Tue 05:49:01 PM 47.3003 -120.6675 115° Southeast 477 549 27,000  Level Seattle Center
Tue 05:50:02 PM 47.2475 -120.4897 114° Southeast 477 549 27,000  Level Seattle Center
Tue 05:51:03 PM 47.1931 -120.3133 114° Southeast 475 547 27,000 -50 Level Seattle Center
Tue 05:52:03 PM 47.1381 -120.1369 115° Southeast 476 548 26,900  Descending Seattle Center
Tue 05:53:04 PM 47.0719 -119.9258 115° Southeast 477 549 27,000 49 Climbing Seattle Center
Tue 05:54:05 PM 47.0169 -119.7489 114° Southeast 479 551 27,000  Level Seattle Center
Tue 05:55:06 PM 46.9606 -119.5728 115° Southeast 480 552 27,000  Level Seattle Center
Tue 05:56:07 PM 46.9056 -119.3983 115° Southeast 476 548 27,000  Level Seattle Center
Tue 05:57:08 PM 46.8481 -119.2231 116° Southeast 479 551 27,000  Level Seattle Center
Tue 05:58:09 PM 46.7922 -119.0483 115° Southeast 476 548 27,000  Level Seattle Center
Tue 05:59:10 PM 46.7356 -118.8739 115° Southeast 478 550 27,000 -49 Level Seattle Center
Tue 06:00:11 PM 46.6794 -118.7022 115° Southeast 476 548 26,900 -50 Descending Seattle Center
Tue 06:01:11 PM 46.6131 -118.5361 120° Southeast 478 550 26,900  Level Seattle Center
Tue 06:02:12 PM 46.5406 -118.3750 123° Southeast 479 551 26,900 49 Level Seattle Center
Tue 06:03:13 PM 46.4658 -118.2147 124° Southeast 481 554 27,000 49 Climbing Seattle Center
Tue 06:04:14 PM 46.3925 -118.0567 124° Southeast 479 551 27,000  Level Seattle Center
Tue 06:05:15 PM 46.3028 -117.8653 124° Southeast 481 554 27,000  Level Seattle Center
Tue 06:07:15 PM 46.1528 -117.5483 124° Southeast 480 552 27,000  Level Salt Lake Center
Tue 06:08:18 PM 46.0781 -117.3914 124° Southeast 478 550 27,000  Level Seattle Center
Tue 06:09:19 PM 46.0033 -117.2364 125° Southeast 476 548 27,000 -50 Level Seattle Center
Tue 06:10:19 PM 45.9283 -117.0808 125° Southeast 475 547 26,900  Descending Seattle Center
Tue 06:11:20 PM 45.8531 -116.9250 125° Southeast 477 549 27,000  Climbing Seattle Center
Tue 06:12:21 PM 45.7772 -116.7700 125° Southeast 477 549 26,900 -49 Descending Seattle Center
Tue 06:13:22 PM 45.7014 -116.6144 125° Southeast 478 550 26,900 49 Level Seattle Center
Tue 06:14:23 PM 45.6178 -116.4403 124° Southeast 476 548 27,000 49 Climbing Seattle Center
Tue 06:15:24 PM 45.5439 -116.2911 125° Southeast 479 551 27,000  Level Seattle Center
Tue 06:16:30 PM 45.4581 -116.1192 125° Southeast 480 552 27,000  Level Salt Lake Center
Tue 06:17:32 PM 45.3717 -115.9478 126° Southeast 475 547 27,000  Level Salt Lake Center
Tue 06:18:34 PM 45.2975 -115.7975 125° Southeast 482 555 27,000  Level Salt Lake Center
Tue 06:19:28 PM 45.2214 -115.6492 126° Southeast 482 555 27,000  Level Seattle Center
Tue 06:20:29 PM 45.1458 -115.5003 126° Southeast 485 558 27,000  Level Seattle Center
Tue 06:21:30 PM 45.0714 -115.3533 126° Southeast 481 554 27,000  Level Seattle Center
Tue 06:22:31 PM 44.9831 -115.1836 126° Southeast 479 551 27,000  Level Seattle Center
Tue 06:23:32 PM 44.9081 -115.0372 126° Southeast 478 550 27,000  Level Seattle Center
Tue 06:24:33 PM 44.8311 -114.8914 127° Southeast 481 554 27,000  Level Seattle Center
Tue 06:25:34 PM 44.7431 -114.7200 126° Southeast 482 555 27,000  Level Seattle Center
Tue 06:26:35 PM 44.6678 -114.5753 126° Southeast 480 552 27,000  Level Seattle Center
Tue 06:27:36 PM 44.5906 -114.4283 126° Southeast 482 555 27,000  Level Seattle Center
Tue 06:28:37 PM 44.4997 -114.2581 127° Southeast 485 558 27,000  Level Seattle Center
Tue 06:29:51 PM 44.4089 -114.0886 127° Southeast 486 559 27,000  Level Salt Lake Center
Tue 06:30:53 PM 44.3189 -113.9206 127° Southeast 487 560 27,000  Level Salt Lake Center
Tue 06:31:54 PM 44.2428 -113.7775 127° Southeast 484 557 27,000  Level Salt Lake Center
Tue 06:32:56 PM 44.1500 -113.6083 127° Southeast 488 562 27,000  Level Salt Lake Center
Tue 06:33:58 PM 44.0728 -113.4656 127° Southeast 486 559 27,000  Level Salt Lake Center
Tue 06:34:59 PM 43.9783 -113.2964 128° Southeast 493 567 27,000  Level Salt Lake Center
Tue 06:36:01 PM 43.8992 -113.1536 128° Southeast 492 566 27,000  Level Salt Lake Center
Tue 06:37:02 PM 43.8081 -112.9869 127° Southeast 488 562 27,000  Level Salt Lake Center
Tue 06:38:04 PM 43.7278 -112.8442 128° Southeast 492 566 27,000  Level Salt Lake Center
Tue 06:39:05 PM 43.6478 -112.7006 128° Southeast 493 567 27,000  Level Salt Lake Center
Tue 06:40:07 PM 43.5536 -112.5325 128° Southeast 497 572 27,000  Level Salt Lake Center
Tue 06:41:09 PM 43.4733 -112.3925 128° Southeast 491 565 27,000  Level Salt Lake Center
Tue 06:42:10 PM 43.3778 -112.2247 128° Southeast 498 573 27,000  Level Salt Lake Center
Tue 06:43:12 PM 43.2969 -112.0844 128° Southeast 493 567 27,000  Level Salt Lake Center
Tue 06:44:13 PM 43.2017 -111.9181 128° Southeast 496 571 27,000  Level Salt Lake Center
Tue 06:45:15 PM 43.1192 -111.7778 129° Southeast 496 571 27,000  Level Salt Lake Center
Tue 06:46:16 PM 43.0383 -111.6350 128° Southeast 497 572 27,000  Level Salt Lake Center
Tue 06:47:18 PM 42.9417 -111.4717 129° Southeast 496 571 27,000  Level Salt Lake Center
Tue 06:48:20 PM 42.8592 -111.3319 129° Southeast 496 571 27,000  Level Salt Lake Center
Tue 06:49:21 PM 42.7622 -111.1689 129° Southeast 497 572 27,000  Level Salt Lake Center
Tue 06:50:23 PM 42.6778 -111.0264 129° Southeast 497 572 27,000  Level Salt Lake Center
Tue 06:51:24 PM 42.5861 -110.8719 129° Southeast 497 572 27,000  Level Salt Lake Center
Tue 06:52:26 PM 42.5033 -110.7344 129° Southeast 495 570 27,000  Level Salt Lake Center
Tue 06:53:27 PM 42.4064 -110.5744 129° Southeast 493 567 27,000  Level Salt Lake Center
Tue 06:54:29 PM 42.3236 -110.4369 129° Southeast 494 568 27,000  Level Salt Lake Center
Tue 06:55:31 PM 42.2256 -110.2764 129° Southeast 496 571 27,000  Level Salt Lake Center
Tue 06:56:32 PM 42.1425 -110.1389 129° Southeast 495 570 27,000  Level Salt Lake Center
Tue 06:57:34 PM 42.0589 -110.0022 129° Southeast 495 570 27,000  Level Salt Lake Center
Tue 06:58:35 PM 41.9603 -109.8442 130° Southeast 495 570 27,000  Level Salt Lake Center
Tue 06:59:37 PM 41.8767 -109.7081 129° Southeast 494 568 27,000  Level Salt Lake Center
Tue 07:00:39 PM 41.7781 -109.5503 130° Southeast 495 570 27,000  Level Salt Lake Center
Tue 07:01:40 PM 41.6939 -109.4144 130° Southeast 494 568 27,000  Level Salt Lake Center
Tue 07:02:42 PM 41.6094 -109.2792 130° Southeast 495 570 27,000  Level Salt Lake Center
Tue 07:03:43 PM 41.5086 -109.1183 130° Southeast 498 573 27,000  Level Salt Lake Center
Tue 07:04:45 PM 41.4186 -108.9769 130° Southeast 499 574 27,000  Level Salt Lake Center
Tue 07:05:46 PM 41.3331 -108.8439 131° Southeast 493 567 27,000  Level Salt Lake Center
Tue 07:06:48 PM 41.2336 -108.6892 130° Southeast 492 566 27,000  Level Salt Lake Center
Tue 07:07:49 PM 41.1483 -108.5567 130° Southeast 491 565 27,000  Level Salt Lake Center
Tue 07:08:51 PM 41.0494 -108.4039 131° Southeast 491 565 27,000  Level Salt Lake Center
Tue 07:09:52 PM 40.9639 -108.2717 131° Southeast 493 567 27,000  Level Salt Lake Center
Tue 07:10:54 PM 40.8778 -108.1406 131° Southeast 494 568 27,000  Level Salt Lake Center
Tue 07:11:56 PM 40.7769 -107.9858 131° Southeast 497 572 27,000  Level Salt Lake Center
Tue 07:12:57 PM 40.6911 -107.8550 131° Southeast 495 570 27,000  Level Salt Lake Center
Tue 07:13:59 PM 40.5897 -107.7031 131° Southeast 494 568 27,000  Level Salt Lake Center
Tue 07:14:19 PM 40.5661 -107.6669 131° Southeast 496 571 27,000  Level Denver Center
Tue 07:15:21 PM 40.4631 -107.5131 131° Southeast 499 574 27,000  Level Denver Center
Tue 07:16:23 PM 40.3764 -107.3828 132° Southeast 496 571 27,000  Level Denver Center
Tue 07:17:25 PM 40.2883 -107.2517 132° Southeast 498 573 27,000  Level Denver Center
Tue 07:18:28 PM 40.1858 -107.1019 132° Southeast 494 568 27,000  Level Denver Center
Tue 07:19:30 PM 40.0994 -106.9736 132° Southeast 491 565 27,000  Level Denver Center
Tue 07:20:42 PM 39.9780 -106.7960 131° Southeast 490 564 27,000  Level FlightAware ADS-B
Tue 07:21:22 PM 39.9230 -106.7150 132° Southeast 490 564 27,000  Level FlightAware ADS-B
Tue 07:22:07 PM 39.8530 -106.6140 132° Southeast 492 566 27,000  Level FlightAware ADS-B
Tue 07:22:25 PM 39.8189 -106.5650 132° Southeast 494 568 27,000  Level FlightAware ADS-B
Tue 07:22:55 PM 39.7728 -106.4980 132° Southeast 491 565 27,000  Level FlightAware ADS-B
Tue 07:23:27 PM 39.7249 -106.4290 132° Southeast 493 567 27,000  Level FlightAware ADS-B
Tue 07:23:57 PM 39.6792 -106.3630 132° Southeast 492 566 27,000  Level FlightAware ADS-B
Tue 07:24:27 PM 39.6325 -106.2960 132° Southeast 494 568 27,000  Level FlightAware ADS-B
Tue 07:24:58 PM 39.5861 -106.2290 132° Southeast 494 568 27,000  Level FlightAware ADS-B
Tue 07:25:28 PM 39.5395 -106.1620 132° Southeast 493 567 27,000  Level FlightAware ADS-B
Tue 07:25:59 PM 39.4925 -106.0950 132° Southeast 491 565 27,000  Level FlightAware ADS-B
Tue 07:26:29 PM 39.4462 -106.0290 132° Southeast 490 564 27,000  Level FlightAware ADS-B
Tue 07:27:00 PM 39.3994 -105.9630 133° Southeast 490 564 27,000  Level FlightAware ADS-B
Tue 07:27:30 PM 39.3534 -105.8970 132° Southeast 489 563 27,000  Level FlightAware ADS-B
Tue 07:28:01 PM 39.3065 -105.8300 132° Southeast 492 566 27,000  Level FlightAware ADS-B
Tue 07:28:31 PM 39.2602 -105.7650 133° Southeast 487 560 27,000  Level FlightAware ADS-B
Tue 07:29:01 PM 39.2145 -105.7010 133° Southeast 491 565 27,000  Level FlightAware ADS-B
Tue 07:29:33 PM 39.1664 -105.6330 132° Southeast 494 568 27,000  Level FlightAware ADS-B
Tue 07:30:05 PM 39.1168 -105.5630 132° Southeast 497 572 27,000  Level FlightAware ADS-B
Tue 07:30:44 PM 39.0565 -105.4790 133° Southeast 492 566 27,000  Level FlightAware ADS-B
Tue 07:31:14 PM 39.0098 -105.4130 132° Southeast 495 570 27,000  Level FlightAware ADS-B
Tue 07:31:44 PM 38.9628 -105.3480 133° Southeast 495 570 27,000  Level FlightAware ADS-B
Tue 07:32:15 PM 38.9156 -105.2820 133° Southeast 498 573 27,000  Level FlightAware ADS-B
Tue 07:32:45 PM 38.8686 -105.2170 133° Southeast 498 573 27,000  Level FlightAware ADS-B
Tue 07:33:16 PM 38.8200 -105.1490 133° Southeast 497 572 27,000  Level FlightAware ADS-B
Tue 07:33:47 PM 38.7724 -105.0830 133° Southeast 498 573 27,000  Level FlightAware ADS-B
Tue 07:34:20 PM 38.7206 -105.0120 133° Southeast 495 570 27,000  Level FlightAware ADS-B
Tue 07:34:50 PM 38.6736 -104.9470 133° Southeast 494 568 27,000  Level FlightAware ADS-B
Tue 07:35:21 PM 38.6258 -104.8810 133° Southeast 495 570 27,000  Level FlightAware ADS-B
Tue 07:35:51 PM 38.5781 -104.8160 133° Southeast 495 570 27,000  Level FlightAware ADS-B
Tue 07:36:28 PM 38.5212 -104.7380 133° Southeast 495 570 27,000  Level FlightAware ADS-B
Tue 07:37:02 PM 38.4674 -104.6650 133° Southeast 497 572 27,000  Level FlightAware ADS-B
Tue 07:37:47 PM 38.3968 -104.5680 133° Southeast 497 572 27,000  Level FlightAware ADS-B
Tue 07:38:21 PM 38.3437 -104.4960 133° Southeast 494 568 27,000  Level FlightAware ADS-B
Tue 07:38:53 PM 38.2938 -104.4290 133° Southeast 494 568 27,000  Level FlightAware ADS-B
Tue 07:39:32 PM 38.2312 -104.3480 135° Southeast 494 568 27,000  Level FlightAware ADS-B
Tue 07:40:03 PM 38.1819 -104.2850 135° Southeast 494 568 27,000  Level FlightAware ADS-B
Tue 07:40:33 PM 38.1328 -104.2230 135° Southeast 494 568 27,000  Level FlightAware ADS-B
Tue 07:41:06 PM 38.0795 -104.1550 135° Southeast 495 570 27,000  Level FlightAware ADS-B
Tue 07:41:50 PM 38.0091 -104.0650 135° Southeast 494 568 27,000  Level FlightAware ADS-B
Tue 07:42:41 PM 37.9276 -103.9610 135° Southeast 494 568 27,000  Level FlightAware ADS-B
Tue 07:43:14 PM 37.8737 -103.8930 135° Southeast 491 565 27,000  Level FlightAware ADS-B
Tue 07:43:46 PM 37.8221 -103.8270 135° Southeast 489 563 27,000  Level FlightAware ADS-B
Tue 07:44:47 PM 37.7247 -103.7050 135° Southeast 487 560 27,000  Level FlightAware ADS-B
Tue 07:45:19 PM 37.6747 -103.6420 135° Southeast 487 560 27,000  Level FlightAware ADS-B
Tue 07:45:49 PM 37.6267 -103.5820 135° Southeast 486 559 27,000  Level FlightAware ADS-B
Tue 07:46:23 PM 37.5720 -103.5130 135° Southeast 485 558 27,000  Level FlightAware ADS-B
Tue 07:46:55 PM 37.5256 -103.4556 135° Southeast 486 559 27,000  Level Albuquerque Center
Tue 07:47:25 PM 37.4786 -103.3975 136° Southeast 487 560 27,000  Level Denver Center
Tue 07:48:27 PM 37.3861 -103.2825 135° Southeast 487 560 27,000  Level Denver Center
Tue 07:48:59 PM 37.3403 -103.2250 135° Southeast 486 559 27,000  Level Albuquerque Center
Tue 07:50:00 PM 37.2325 -103.0917 135° Southeast 486 559 27,000  Level Albuquerque Center
Tue 07:51:02 PM 37.1397 -102.9792 136° Southeast 484 557 27,000  Level Albuquerque Center
Tue 07:52:03 PM 37.0383 -102.8425 133° Southeast 480 552 27,000  Level Albuquerque Center
Tue 07:53:05 PM 36.9581 -102.7175 129° Southeast 479 551 27,000  Level Albuquerque Center
Tue 07:54:06 PM 36.8772 -102.5939 129° Southeast 480 552 27,000  Level Albuquerque Center
Tue 07:55:08 PM 36.7853 -102.4497 129° Southeast 477 549 27,000  Level Albuquerque Center
Tue 07:56:10 PM 36.7008 -102.3219 129° Southeast 478 550 27,000  Level Albuquerque Center
Tue 07:57:11 PM 36.6186 -102.1961 129° Southeast 479 551 27,000  Level Albuquerque Center
Tue 07:58:13 PM 36.5342 -102.0669 129° Southeast 474 545 27,000  Level Albuquerque Center
Tue 07:59:15 PM 36.4506 -101.9411 130° Southeast 472 543 27,000  Level Albuquerque Center
Tue 08:00:18 PM 36.3506 -101.7917 130° Southeast 469 540 27,000  Level Albuquerque Center
Tue 08:01:19 PM 36.2664 -101.6650 129° Southeast 472 543 27,000  Level Albuquerque Center
Tue 08:02:21 PM 36.1819 -101.5397 130° Southeast 473 544 27,000  Level Albuquerque Center
Tue 08:03:22 PM 36.0975 -101.4125 129° Southeast 476 548 27,000  Level Albuquerque Center
Tue 08:04:24 PM 36.0119 -101.2853 130° Southeast 478 550 27,000  Level Albuquerque Center
Tue 08:05:26 PM 35.9275 -101.1600 130° Southeast 475 547 27,000  Level Albuquerque Center
Tue 08:06:27 PM 35.8417 -101.0353 130° Southeast 474 545 27,000  Level Albuquerque Center
Tue 08:07:29 PM 35.7436 -100.8928 130° Southeast 478 550 27,000  Level Albuquerque Center
Tue 08:08:31 PM 35.6694 -100.7856 130° Southeast 476 548 27,000  Level Albuquerque Center
Tue 08:09:32 PM 35.5683 -100.6361 130° Southeast 473 544 27,000  Level Albuquerque Center
Tue 08:10:34 PM 35.4886 -100.5219 131° Southeast 473 544 27,000  Level Albuquerque Center
Tue 08:11:36 PM 35.4022 -100.4000 131° Southeast 474 545 27,000  Level Albuquerque Center
Tue 08:12:37 PM 35.3178 -100.2775 130° Southeast 473 544 27,000  Level Albuquerque Center
Tue 08:13:39 PM 35.2322 -100.1558 131° Southeast 471 542 27,000  Level Albuquerque Center
Tue 08:14:41 PM 35.1289 -100.0100 131° Southeast 472 543 27,000  Level Albuquerque Center
Tue 08:15:43 PM 35.0433 -99.8889 131° Southeast 471 542 27,000  Level Albuquerque Center
Tue 08:16:44 PM 34.9586 -99.7678 130° Southeast 470 541 27,000  Level Albuquerque Center
Tue 08:17:46 PM 34.8708 -99.6450 131° Southeast 477 549 27,000  Level Albuquerque Center
Tue 08:18:31 PM 34.7956 -99.5425 132° Southeast 476 548 27,000  Level Fort Worth Center
Tue 08:19:31 PM 34.7100 -99.4192 160° South 476 548 27,000  Level Fort Worth Center
Tue 08:20:31 PM 34.6203 -99.2986 161° South 476 548 27,000  Level Fort Worth Center
Tue 08:21:31 PM 34.5344 -99.1731 160° South 476 548 27,000  Level Fort Worth Center
Tue 08:22:31 PM 34.4372 -99.1006 104° East 469 540 27,000  Level Fort Worth Center
Tue 08:23:52 PM 34.2780 -99.0330 132° Southeast 389 448 27,000  Level FlightAware ADS-B
Tue 08:24:37 PM 34.2100 -99.0030 160° South 389 448 27,000  Level FlightAware ADS-B
Tue 08:25:22 PM 34.1320 -98.9700 161° South 385 443 27,000  Level FlightAware ADS-B
Tue 08:26:02 PM 34.0750 -98.9450 160° South 385 443 27,000  Level FlightAware ADS-B
Tue 08:26:42 PM 34.0180 -98.9200 160° South 385 443 27,000 -400 Level FlightAware ADS-B
Tue 08:27:02 PM 33.9910 -98.7930 104° East 475 547 26,600 -369 Descending FlightAware ADS-B
Tue 08:27:47 PM 33.9490 -98.6970 118° Southeast 475 547 26,600 -1,579 Level FlightAware ADS-B
Tue 08:28:37 PM 33.8880 -98.5660 119° Southeast 478 550 24,100 -1,733 Descending FlightAware ADS-B
Tue 08:29:17 PM 33.8470 -98.4780 119° Southeast 470 541 24,000 -75 Descending FlightAware ADS-B
Tue 08:29:57 PM 33.8040 -98.3880 120° Southeast 453 521 24,000 -429 Level FlightAware ADS-B
Tue 08:30:27 PM 33.7720 -98.3200 120° Southeast 446 513 23,500 -1,440 Descending FlightAware ADS-B
Tue 08:31:12 PM 33.7290 -98.2290 120° Southeast 441 507 22,200 -1,200 Descending FlightAware ADS-B
Tue 08:32:07 PM 33.6770 -98.1160 119° Southeast 437 503 21,500 -442 Descending FlightAware ADS-B
Tue 08:32:47 PM 33.6430 -98.0440 120° Southeast 437 503 21,500  Level FlightAware ADS-B
Tue 08:33:27 PM 33.6100 -97.9720 119° Southeast 437 503 21,500 -3,388 Level FlightAware ADS-B
Tue 08:34:12 PM 33.5550 -97.8620 121° Southeast 402 463 16,700 -4,067 Descending FlightAware ADS-B
Tue 08:34:57 PM 33.5060 -97.7860 128° Southeast 376 433 15,400 -1,694 Descending FlightAware ADS-B
Tue 08:35:37 PM 33.4570 -97.7280 135° Southeast 368 423 14,300 -1,650 Descending FlightAware ADS-B
Tue 08:36:17 PM 33.4070 -97.6690 135° Southeast 357 411 13,200 -1,553 Descending FlightAware ADS-B
Tue 08:37:02 PM 33.3630 -97.6170 135° Southeast 354 407 12,100 -1,412 Descending FlightAware ADS-B
Tue 08:37:42 PM 33.3130 -97.5570 135° Southeast 343 395 11,200 -900 Descending FlightAware ADS-B
Tue 08:38:22 PM 33.2700 -97.5080 136° Southeast 310 357 10,900 -212 Descending FlightAware ADS-B
Tue 08:39:07 PM 33.2250 -97.4550 135° Southeast 319 367 10,900  Level FlightAware ADS-B
Tue 08:39:47 PM 33.1820 -97.4050 136° Southeast 314 361 10,900  Level FlightAware ADS-B
Tue 08:40:32 PM 33.1340 -97.3490 136° Southeast 316 364 10,900  Level FlightAware ADS-B
Tue 08:41:12 PM 33.0930 -97.3010 136° Southeast 314 361 10,900  Level FlightAware ADS-B
Tue 08:41:57 PM 33.0470 -97.2460 135° Southeast 316 364 10,900  Level FlightAware ADS-B
Tue 08:42:37 PM 33.0060 -97.1990 136° Southeast 294 338 10,900  Level FlightAware ADS-B
Tue 08:43:07 PM 32.9740 -97.1740 147° Southeast 262 302 10,900 -771 Level FlightAware ADS-B
Tue 08:43:47 PM 32.9290 -97.1700 176° South 248 285 10,000 -1,800 Descending FlightAware ADS-B
Tue 08:44:27 PM 32.8830 -97.1700 180° South 246 283 8,500 -2,308 Descending FlightAware ADS-B
Tue 08:44:52 PM 32.8540 -97.1700 180° South 246 283 7,500 -1,964 Descending FlightAware ADS-B
Tue 08:45:22 PM 32.8200 -97.1700 180° South 249 287 6,700 -1,200 Descending FlightAware ADS-B
Tue 08:45:52 PM 32.7860 -97.1690 179° South 246 283 6,300 -800 Descending FlightAware ADS-B
Tue 08:46:22 PM 32.7510 -97.1680 179° South 241 277 5,900 -436 Descending FlightAware ADS-B
Tue 08:46:47 PM 32.7250 -97.1680 180° South 227 261 5,900  Level FlightAware ADS-B
Tue 08:47:17 PM 32.6940 -97.1680 180° South 229 264 5,900 -267 Level FlightAware ADS-B
Tue 08:47:32 PM 32.6770 -97.1680 180° South 228 262 5,700 -750 Descending FlightAware ADS-B
Tue 08:47:57 PM 32.6520 -97.1650 174° South 224 258 5,400 -600 Descending FlightAware ADS-B
Tue 08:48:12 PM 32.6410 -97.1550 143° Southeast 210 242 5,300 -600 Descending FlightAware ADS-B
Tue 08:48:27 PM 32.6360 -97.1400 112° Southeast 201 231 5,100 -1,029 Descending FlightAware ADS-B
Tue 08:48:47 PM 32.6340 -97.1140 95° East 198 228 4,700 -1,050 Descending FlightAware ADS-B
Tue 08:49:07 PM 32.6430 -97.0980 56° Northeast 195 224 4,400 -840 Descending FlightAware ADS-B
Tue 08:49:37 PM 32.6660 -97.0850 25° Northeast 198 228 4,000 -545 Descending FlightAware ADS-B
Tue 08:50:02 PM 32.6870 -97.0750 22° Northeast 187 215 3,900 -218 Descending FlightAware ADS-B
Tue 08:50:32 PM 32.7110 -97.0640 21° North 187 215 3,800 -600 Descending FlightAware ADS-B
Tue 08:51:02 PM 32.7370 -97.0590 North 190 219 3,300 -1,091 Descending FlightAware ADS-B
Tue 08:51:27 PM 32.7590 -97.0560 North 188 216 2,800 -1,080 Descending FlightAware ADS-B
Tue 08:51:52 PM 32.7790 -97.0550 North 174 200 2,400 -857 Descending FlightAware ADS-B
Tue 08:52:37 PM 32.8060 -97.0550 360° North 162 186 1,800 -831 Descending FlightAware ADS-B
Tue 08:52:57 PM 32.8250 -97.0550 360° North 134 154 1,500 -667 Descending FlightAware ADS-B
Tue 08:53:22 PM 32.8300 -97.0550 360° North 124 143 1,300 -240 Descending FlightAware ADS-B
Tue 08:53:47 PM 32.8440 -97.0560 357° North 124 143 1,300 -682 Level FlightAware ADS-B
Tue 08:54:06 PM 32.8667 -97.0500 357° North 131 151 800 -1,579 Descending Dallas / Fort Worth TRACON

Login

Don't have an account? Register now (free) for customized features, flight alerts, and more!